Terminal Aerodrome Forecast
Issued by NWS

Home | Current Version | Previous Version | Text Only | Print | Product List | Glossary Off
Versions: 1 2 3 4 5 6 7 8 9 10 11 12 13 14 15 16 17 18 19 20 21 22 23 24

000
FTUS42 KMHX 251500 AAA
TAFOAJ
TAF AMD
KOAJ 251510Z 2515/2612 25005KT P6SM VCSH OVC090
     FM251600 31004KT 4SM -RA BR OVC010
     FM260200 03005KT 4SM -RA BR OVC005
      AMD LTD TO CLD VIS AND WIND=

USA.gov is the U.S. government's official web portal to all federal, state and local government web resources and services.